CheckWX is a tool to help pilots better visualize weather data.  It is not intended as a substitute for an official pre-flight weather briefing.

04:43:51 UTC

KERI TAF
Erie International / Tom Ridge Field Airport
Erie, Pennsylvania, USA
KERI 230429Z 2304/2324 30012G22KT P6SM SCT025 BKN035 TEMPO 2304/2307 BKN025 FM231800 27010KT P6SM SKC

Mar-23@
04:00 UTC

Mar-23 @ 04:00 UTC

Mar-23@
18:00 UTC

Mar-23 @ 18:00 UTC

KERI 230429Z 2304/2324 30012G22KT P6SM SCT025 BKN035
Wind
  • 300° at 12 KTS
  • {Gusting to 22 KTS
Cloud Levels
  • Scattered at 2,500' AGL
  • Broken at 3,500' AGL

Mar-23@
04:00 UTC

Mar-23 @ 04:00 UTC

Mar-23@
07:00 UTC

Mar-23 @ 07:00 UTC

TEMPO 2304/2307 BKN025

Temporary

Temporary Changes expected for less than half the time period

Cloud Levels
  • Broken at 2,500' AGL

Mar-23@
18:00 UTC

Mar-23 @ 18:00 UTC

Mar-24@
00:00 UTC

Mar-24 @ 00:00 UTC

FM231800 27010KT P6SM SKC

From

From Standard forecast or significant change

Wind
  • 270° at 10 KTS
Cloud Levels
  • Clear skies